首页
METAR-TAF:

METAR-TAF

机场 :

Schenck Field

Clarinda, 艾奥瓦州, 美国

纬度: 40-43N, 经度: 095-02W, 海拔: 303米

当前天气观测

该预报发布于18分钟前的10:35 UTC
风速11节,风向
温度 18°C
湿度 100%
气压 1010 hPa
能見度: 2.8公里
阴天层高于300英尺

METAR: KICL 261035Z AUTO 01011KT 1 3/4SM RA OVC003 18/18 A2982 RMK AO2

时间: 05:53 (10:53 UTC)


TAF: 丢失

超过4000个机场的气象观测和天气预报(METAR&TAF报告)。

可查询的气象台以黄色和红色小点在地图上表示。

将鼠标移到小点上方,可查看气象台名称。

然后点击查看天气观测和预报。

如需切换地图:点击带黑十字的绿色按钮放大地图;点击带横线的绿色按钮缩小地图;或者点击绿色箭头查看邻近地区的地图。


METAR-TAF: